sensor_id;sensor_type;location;lat;lon;timestamp;P1;durP1;ratioP1;P2;durP2;ratioP2
25213;SDS011;13160;51.834;4.706;2023-04-24T00:00:39;5.05;;;2.08;;
25213;SDS011;13160;51.834;4.706;2023-04-24T00:03:08;4.22;;;2.30;;
25213;SDS011;13160;51.834;4.706;2023-04-24T00:05:37;4.60;;;1.98;;
25213;SDS011;13160;51.834;4.706;2023-04-24T00:08:09;4.32;;;1.85;;
25213;SDS011;13160;51.834;4.706;2023-04-24T00:10:37;3.83;;;1.80;;
25213;SDS011;13160;51.834;4.706;2023-04-24T00:13:05;4.32;;;1.80;;
25213;SDS011;13160;51.834;4.706;2023-04-24T00:15:34;5.80;;;1.80;;
25213;SDS011;13160;51.834;4.706;2023-04-24T00:18:02;4.18;;;1.63;;
25213;SDS011;13160;51.834;4.706;2023-04-24T00:20:31;4.38;;;2.08;;
25213;SDS011;13160;51.834;4.706;2023-04-24T00:22:59;4.05;;;1.70;;
25213;SDS011;13160;51.834;4.706;2023-04-24T00:25:29;4.63;;;2.00;;
25213;SDS011;13160;51.834;4.706;2023-04-24T00:27:57;3.55;;;1.98;;
25213;SDS011;13160;51.834;4.706;2023-04-24T00:30:26;9.57;;;2.85;;
25213;SDS011;13160;51.834;4.706;2023-04-24T00:32:54;6.63;;;2.85;;
25213;SDS011;13160;51.834;4.706;2023-04-24T00:35:23;4.80;;;2.63;;
25213;SDS011;13160;51.834;4.706;2023-04-24T00:37:52;6.03;;;3.08;;
25213;SDS011;13160;51.834;4.706;2023-04-24T00:40:20;7.63;;;4.78;;
25213;SDS011;13160;51.834;4.706;2023-04-24T00:42:50;9.20;;;4.90;;
25213;SDS011;13160;51.834;4.706;2023-04-24T00:45:18;15.48;;;5.22;;
25213;SDS011;13160;51.834;4.706;2023-04-24T00:47:47;7.88;;;4.28;;
25213;SDS011;13160;51.834;4.706;2023-04-24T00:50:16;11.73;;;5.40;;
25213;SDS011;13160;51.834;4.706;2023-04-24T00:52:45;10.25;;;4.88;;
25213;SDS011;13160;51.834;4.706;2023-04-24T00:55:17;8.68;;;4.90;;
25213;SDS011;13160;51.834;4.706;2023-04-24T00:57:46;10.65;;;4.88;;
25213;SDS011;13160;51.834;4.706;2023-04-24T01:00:16;10.60;;;5.40;;
25213;SDS011;13160;51.834;4.706;2023-04-24T01:02:45;11.20;;;4.72;;
25213;SDS011;13160;51.834;4.706;2023-04-24T01:05:14;8.13;;;4.68;;
25213;SDS011;13160;51.834;4.706;2023-04-24T01:07:43;8.73;;;4.93;;
25213;SDS011;13160;51.834;4.706;2023-04-24T01:10:15;7.82;;;4.43;;
25213;SDS011;13160;51.834;4.706;2023-04-24T01:12:44;5.35;;;3.00;;
25213;SDS011;13160;51.834;4.706;2023-04-24T01:15:13;6.28;;;2.88;;
25213;SDS011;13160;51.834;4.706;2023-04-24T01:17:43;5.10;;;3.10;;
25213;SDS011;13160;51.834;4.706;2023-04-24T01:20:14;6.28;;;3.60;;
25213;SDS011;13160;51.834;4.706;2023-04-24T01:22:44;8.13;;;3.67;;
25213;SDS011;13160;51.834;4.706;2023-04-24T01:25:15;5.93;;;3.65;;
25213;SDS011;13160;51.834;4.706;2023-04-24T01:27:43;7.00;;;4.18;;
25213;SDS011;13160;51.834;4.706;2023-04-24T01:30:12;10.35;;;5.00;;
25213;SDS011;13160;51.834;4.706;2023-04-24T01:32:41;11.23;;;4.80;;
25213;SDS011;13160;51.834;4.706;2023-04-24T01:35:12;9.35;;;5.35;;
25213;SDS011;13160;51.834;4.706;2023-04-24T01:37:40;11.65;;;5.70;;
25213;SDS011;13160;51.834;4.706;2023-04-24T01:40:10;10.27;;;6.10;;
25213;SDS011;13160;51.834;4.706;2023-04-24T01:42:40;11.27;;;6.95;;
25213;SDS011;13160;51.834;4.706;2023-04-24T01:45:10;12.15;;;6.80;;
25213;SDS011;13160;51.834;4.706;2023-04-24T01:47:40;14.75;;;8.18;;
25213;SDS011;13160;51.834;4.706;2023-04-24T01:50:08;12.88;;;8.45;;
25213;SDS011;13160;51.834;4.706;2023-04-24T01:52:37;12.93;;;7.22;;
25213;SDS011;13160;51.834;4.706;2023-04-24T01:55:07;13.82;;;7.72;;
25213;SDS011;13160;51.834;4.706;2023-04-24T01:57:37;13.13;;;8.30;;
25213;SDS011;13160;51.834;4.706;2023-04-24T02:00:06;16.52;;;8.82;;
25213;SDS011;13160;51.834;4.706;2023-04-24T02:02:37;15.38;;;8.65;;
25213;SDS011;13160;51.834;4.706;2023-04-24T02:05:11;15.02;;;8.98;;
25213;SDS011;13160;51.834;4.706;2023-04-24T02:07:39;18.63;;;9.82;;
25213;SDS011;13160;51.834;4.706;2023-04-24T02:10:08;15.27;;;9.48;;
25213;SDS011;13160;51.834;4.706;2023-04-24T02:12:38;18.08;;;11.13;;
25213;SDS011;13160;51.834;4.706;2023-04-24T02:15:07;18.55;;;11.02;;
25213;SDS011;13160;51.834;4.706;2023-04-24T02:17:36;22.55;;;11.02;;
25213;SDS011;13160;51.834;4.706;2023-04-24T02:20:05;22.50;;;12.02;;
25213;SDS011;13160;51.834;4.706;2023-04-24T02:22:35;23.23;;;10.95;;
25213;SDS011;13160;51.834;4.706;2023-04-24T02:25:03;17.48;;;10.20;;
25213;SDS011;13160;51.834;4.706;2023-04-24T02:27:32;14.70;;;10.13;;
25213;SDS011;13160;51.834;4.706;2023-04-24T02:30:02;20.88;;;10.20;;
25213;SDS011;13160;51.834;4.706;2023-04-24T02:32:32;16.80;;;10.05;;
25213;SDS011;13160;51.834;4.706;2023-04-24T02:35:01;22.20;;;10.68;;
25213;SDS011;13160;51.834;4.706;2023-04-24T02:37:29;20.95;;;10.65;;
25213;SDS011;13160;51.834;4.706;2023-04-24T02:39:57;21.20;;;10.38;;
25213;SDS011;13160;51.834;4.706;2023-04-24T02:42:26;19.35;;;8.90;;
25213;SDS011;13160;51.834;4.706;2023-04-24T02:44:54;17.90;;;8.38;;
25213;SDS011;13160;51.834;4.706;2023-04-24T02:47:24;16.70;;;7.85;;
25213;SDS011;13160;51.834;4.706;2023-04-24T02:49:52;19.08;;;8.25;;
25213;SDS011;13160;51.834;4.706;2023-04-24T02:52:21;13.30;;;8.35;;
25213;SDS011;13160;51.834;4.706;2023-04-24T02:54:49;14.95;;;7.13;;
25213;SDS011;13160;51.834;4.706;2023-04-24T02:57:17;12.07;;;6.63;;
25213;SDS011;13160;51.834;4.706;2023-04-24T02:59:46;13.45;;;6.88;;
25213;SDS011;13160;51.834;4.706;2023-04-24T03:02:14;14.40;;;7.35;;
25213;SDS011;13160;51.834;4.706;2023-04-24T03:04:44;15.10;;;6.55;;
25213;SDS011;13160;51.834;4.706;2023-04-24T03:07:15;13.00;;;6.78;;
25213;SDS011;13160;51.834;4.706;2023-04-24T03:09:47;14.38;;;7.47;;
25213;SDS011;13160;51.834;4.706;2023-04-24T03:12:15;13.00;;;6.75;;
25213;SDS011;13160;51.834;4.706;2023-04-24T03:14:44;10.52;;;5.80;;
25213;SDS011;13160;51.834;4.706;2023-04-24T03:17:15;8.80;;;5.30;;
25213;SDS011;13160;51.834;4.706;2023-04-24T03:19:44;8.40;;;4.05;;
25213;SDS011;13160;51.834;4.706;2023-04-24T03:22:13;7.50;;;4.72;;
25213;SDS011;13160;51.834;4.706;2023-04-24T03:24:41;5.88;;;3.60;;
25213;SDS011;13160;51.834;4.706;2023-04-24T03:27:09;8.48;;;3.72;;
25213;SDS011;13160;51.834;4.706;2023-04-24T03:29:38;5.38;;;3.42;;
25213;SDS011;13160;51.834;4.706;2023-04-24T03:32:06;5.85;;;3.45;;
25213;SDS011;13160;51.834;4.706;2023-04-24T03:34:35;8.27;;;3.65;;
25213;SDS011;13160;51.834;4.706;2023-04-24T03:37:04;5.55;;;3.50;;
25213;SDS011;13160;51.834;4.706;2023-04-24T03:39:33;6.82;;;4.13;;
25213;SDS011;13160;51.834;4.706;2023-04-24T03:42:01;8.20;;;4.30;;
25213;SDS011;13160;51.834;4.706;2023-04-24T03:44:29;7.55;;;4.25;;
25213;SDS011;13160;51.834;4.706;2023-04-24T03:46:58;6.57;;;4.22;;
25213;SDS011;13160;51.834;4.706;2023-04-24T03:49:26;7.07;;;4.57;;
25213;SDS011;13160;51.834;4.706;2023-04-24T03:51:54;7.78;;;4.88;;
25213;SDS011;13160;51.834;4.706;2023-04-24T03:54:24;7.78;;;3.72;;
25213;SDS011;13160;51.834;4.706;2023-04-24T03:56:52;5.57;;;3.38;;
25213;SDS011;13160;51.834;4.706;2023-04-24T03:59:21;7.05;;;2.92;;
25213;SDS011;13160;51.834;4.706;2023-04-24T04:01:49;4.97;;;2.33;;
25213;SDS011;13160;51.834;4.706;2023-04-24T04:04:18;5.90;;;2.38;;
25213;SDS011;13160;51.834;4.706;2023-04-24T04:06:46;5.57;;;2.40;;
25213;SDS011;13160;51.834;4.706;2023-04-24T04:09:15;5.05;;;2.35;;
25213;SDS011;13160;51.834;4.706;2023-04-24T04:11:44;6.22;;;2.40;;
25213;SDS011;13160;51.834;4.706;2023-04-24T04:14:16;5.85;;;2.55;;
25213;SDS011;13160;51.834;4.706;2023-04-24T04:16:44;6.57;;;2.53;;
25213;SDS011;13160;51.834;4.706;2023-04-24T04:19:13;6.05;;;2.80;;
25213;SDS011;13160;51.834;4.706;2023-04-24T04:21:41;5.95;;;3.28;;
25213;SDS011;13160;51.834;4.706;2023-04-24T04:24:11;8.95;;;4.50;;
25213;SDS011;13160;51.834;4.706;2023-04-24T04:26:40;7.65;;;5.10;;
25213;SDS011;13160;51.834;4.706;2023-04-24T04:29:14;9.40;;;5.60;;
25213;SDS011;13160;51.834;4.706;2023-04-24T04:31:44;8.30;;;5.75;;
25213;SDS011;13160;51.834;4.706;2023-04-24T04:34:13;9.38;;;6.15;;
25213;SDS011;13160;51.834;4.706;2023-04-24T04:36:41;10.18;;;6.40;;
25213;SDS011;13160;51.834;4.706;2023-04-24T04:39:12;9.95;;;5.90;;
25213;SDS011;13160;51.834;4.706;2023-04-24T04:41:45;7.10;;;4.65;;
25213;SDS011;13160;51.834;4.706;2023-04-24T04:44:16;8.73;;;5.30;;
25213;SDS011;13160;51.834;4.706;2023-04-24T04:46:46;7.80;;;5.40;;
25213;SDS011;13160;51.834;4.706;2023-04-24T04:49:14;9.35;;;5.25;;
25213;SDS011;13160;51.834;4.706;2023-04-24T04:51:43;8.27;;;5.05;;
25213;SDS011;13160;51.834;4.706;2023-04-24T04:54:14;10.77;;;5.30;;
25213;SDS011;13160;51.834;4.706;2023-04-24T04:56:42;7.90;;;4.88;;
25213;SDS011;13160;51.834;4.706;2023-04-24T04:59:11;8.85;;;4.93;;
25213;SDS011;13160;51.834;4.706;2023-04-24T05:01:41;8.20;;;4.85;;
25213;SDS011;13160;51.834;4.706;2023-04-24T05:04:09;9.82;;;3.75;;
25213;SDS011;13160;51.834;4.706;2023-04-24T05:06:38;7.45;;;3.35;;
25213;SDS011;13160;51.834;4.706;2023-04-24T05:09:07;7.47;;;2.50;;
25213;SDS011;13160;51.834;4.706;2023-04-24T05:11:35;5.80;;;2.88;;
25213;SDS011;13160;51.834;4.706;2023-04-24T05:14:07;5.07;;;2.70;;
25213;SDS011;13160;51.834;4.706;2023-04-24T05:16:40;8.32;;;2.60;;
25213;SDS011;13160;51.834;4.706;2023-04-24T05:19:09;6.18;;;2.80;;
25213;SDS011;13160;51.834;4.706;2023-04-24T05:21:38;4.63;;;2.58;;
25213;SDS011;13160;51.834;4.706;2023-04-24T05:24:06;7.57;;;3.30;;
25213;SDS011;13160;51.834;4.706;2023-04-24T05:26:36;8.13;;;4.43;;
25213;SDS011;13160;51.834;4.706;2023-04-24T05:29:05;13.35;;;6.35;;
25213;SDS011;13160;51.834;4.706;2023-04-24T05:31:33;15.65;;;7.38;;
25213;SDS011;13160;51.834;4.706;2023-04-24T05:34:03;16.45;;;7.50;;
25213;SDS011;13160;51.834;4.706;2023-04-24T05:36:31;21.70;;;9.20;;
25213;SDS011;13160;51.834;4.706;2023-04-24T05:39:00;17.33;;;9.25;;
25213;SDS011;13160;51.834;4.706;2023-04-24T05:41:33;19.77;;;8.82;;
25213;SDS011;13160;51.834;4.706;2023-04-24T05:44:02;15.52;;;9.73;;
25213;SDS011;13160;51.834;4.706;2023-04-24T05:46:30;19.10;;;10.07;;
25213;SDS011;13160;51.834;4.706;2023-04-24T05:48:59;18.05;;;8.52;;
25213;SDS011;13160;51.834;4.706;2023-04-24T05:51:28;19.00;;;9.60;;
25213;SDS011;13160;51.834;4.706;2023-04-24T05:53:57;21.02;;;9.65;;
25213;SDS011;13160;51.834;4.706;2023-04-24T05:56:26;20.70;;;11.45;;
25213;SDS011;13160;51.834;4.706;2023-04-24T05:58:55;31.42;;;12.25;;
25213;SDS011;13160;51.834;4.706;2023-04-24T06:01:23;27.13;;;13.23;;
25213;SDS011;13160;51.834;4.706;2023-04-24T06:03:52;24.23;;;12.30;;
25213;SDS011;13160;51.834;4.706;2023-04-24T06:06:21;30.15;;;13.55;;
25213;SDS011;13160;51.834;4.706;2023-04-24T06:08:50;25.98;;;13.73;;
25213;SDS011;13160;51.834;4.706;2023-04-24T06:11:19;31.90;;;13.25;;
25213;SDS011;13160;51.834;4.706;2023-04-24T06:13:48;30.23;;;13.20;;
25213;SDS011;13160;51.834;4.706;2023-04-24T06:16:18;29.90;;;12.48;;
25213;SDS011;13160;51.834;4.706;2023-04-24T06:18:46;36.13;;;13.48;;
25213;SDS011;13160;51.834;4.706;2023-04-24T06:21:15;26.83;;;11.93;;
25213;SDS011;13160;51.834;4.706;2023-04-24T06:23:44;22.63;;;12.27;;
25213;SDS011;13160;51.834;4.706;2023-04-24T06:26:15;34.08;;;12.30;;
25213;SDS011;13160;51.834;4.706;2023-04-24T06:28:43;27.40;;;11.27;;
25213;SDS011;13160;51.834;4.706;2023-04-24T06:31:12;25.23;;;11.25;;
25213;SDS011;13160;51.834;4.706;2023-04-24T06:33:40;27.25;;;10.95;;
25213;SDS011;13160;51.834;4.706;2023-04-24T06:36:08;22.25;;;10.57;;
25213;SDS011;13160;51.834;4.706;2023-04-24T06:38:37;20.65;;;9.65;;
25213;SDS011;13160;51.834;4.706;2023-04-24T06:41:05;32.58;;;9.20;;
25213;SDS011;13160;51.834;4.706;2023-04-24T06:43:35;21.00;;;7.90;;
25213;SDS011;13160;51.834;4.706;2023-04-24T06:46:06;21.98;;;7.60;;
25213;SDS011;13160;51.834;4.706;2023-04-24T06:48:40;25.40;;;7.55;;
25213;SDS011;13160;51.834;4.706;2023-04-24T06:51:09;28.60;;;7.72;;
25213;SDS011;13160;51.834;4.706;2023-04-24T06:53:37;23.15;;;7.47;;
25213;SDS011;13160;51.834;4.706;2023-04-24T06:56:05;20.58;;;6.45;;
25213;SDS011;13160;51.834;4.706;2023-04-24T06:58:35;25.88;;;6.57;;
25213;SDS011;13160;51.834;4.706;2023-04-24T07:01:04;33.55;;;7.40;;
25213;SDS011;13160;51.834;4.706;2023-04-24T07:03:34;25.17;;;6.63;;
25213;SDS011;13160;51.834;4.706;2023-04-24T07:06:04;27.00;;;7.25;;
25213;SDS011;13160;51.834;4.706;2023-04-24T07:08:33;30.58;;;7.35;;
25213;SDS011;13160;51.834;4.706;2023-04-24T07:11:02;28.77;;;7.25;;
25213;SDS011;13160;51.834;4.706;2023-04-24T07:13:31;26.95;;;7.22;;
25213;SDS011;13160;51.834;4.706;2023-04-24T07:16:03;25.55;;;7.68;;
25213;SDS011;13160;51.834;4.706;2023-04-24T07:18:32;35.40;;;7.85;;
25213;SDS011;13160;51.834;4.706;2023-04-24T07:21:01;20.90;;;6.63;;
25213;SDS011;13160;51.834;4.706;2023-04-24T07:23:29;28.85;;;6.15;;
25213;SDS011;13160;51.834;4.706;2023-04-24T07:25:58;29.10;;;6.07;;
25213;SDS011;13160;51.834;4.706;2023-04-24T07:28:26;22.50;;;5.30;;
25213;SDS011;13160;51.834;4.706;2023-04-24T07:30:57;21.88;;;5.90;;
25213;SDS011;13160;51.834;4.706;2023-04-24T07:33:27;29.52;;;5.85;;
25213;SDS011;13160;51.834;4.706;2023-04-24T07:35:56;22.50;;;5.15;;
25213;SDS011;13160;51.834;4.706;2023-04-24T07:38:24;27.50;;;4.47;;
25213;SDS011;13160;51.834;4.706;2023-04-24T07:40:52;19.73;;;5.32;;
25213;SDS011;13160;51.834;4.706;2023-04-24T07:43:21;26.42;;;5.40;;
25213;SDS011;13160;51.834;4.706;2023-04-24T07:45:50;31.30;;;5.47;;
25213;SDS011;13160;51.834;4.706;2023-04-24T07:48:18;25.45;;;4.82;;
25213;SDS011;13160;51.834;4.706;2023-04-24T07:50:49;26.13;;;4.80;;
25213;SDS011;13160;51.834;4.706;2023-04-24T07:53:18;23.08;;;4.75;;
25213;SDS011;13160;51.834;4.706;2023-04-24T07:55:46;22.08;;;4.60;;
25213;SDS011;13160;51.834;4.706;2023-04-24T07:58:15;21.00;;;4.38;;
25213;SDS011;13160;51.834;4.706;2023-04-24T08:00:43;21.92;;;4.35;;
25213;SDS011;13160;51.834;4.706;2023-04-24T08:03:11;21.58;;;4.47;;
25213;SDS011;13160;51.834;4.706;2023-04-24T08:05:40;19.85;;;4.50;;
25213;SDS011;13160;51.834;4.706;2023-04-24T08:08:10;19.27;;;4.05;;
25213;SDS011;13160;51.834;4.706;2023-04-24T08:10:39;21.95;;;3.65;;
25213;SDS011;13160;51.834;4.706;2023-04-24T08:13:07;27.77;;;4.03;;
25213;SDS011;13160;51.834;4.706;2023-04-24T08:15:37;22.67;;;4.68;;
25213;SDS011;13160;51.834;4.706;2023-04-24T08:18:06;13.02;;;3.50;;
25213;SDS011;13160;51.834;4.706;2023-04-24T08:20:35;19.67;;;4.07;;
25213;SDS011;13160;51.834;4.706;2023-04-24T08:23:03;11.73;;;2.95;;
25213;SDS011;13160;51.834;4.706;2023-04-24T08:25:33;20.77;;;4.35;;
25213;SDS011;13160;51.834;4.706;2023-04-24T08:28:02;18.90;;;3.75;;
25213;SDS011;13160;51.834;4.706;2023-04-24T08:30:31;18.30;;;4.03;;
25213;SDS011;13160;51.834;4.706;2023-04-24T08:32:59;15.10;;;3.85;;
25213;SDS011;13160;51.834;4.706;2023-04-24T08:35:28;13.40;;;3.95;;
25213;SDS011;13160;51.834;4.706;2023-04-24T08:37:57;19.00;;;3.38;;
25213;SDS011;13160;51.834;4.706;2023-04-24T08:40:27;17.67;;;3.45;;
25213;SDS011;13160;51.834;4.706;2023-04-24T08:43:01;13.02;;;2.80;;
25213;SDS011;13160;51.834;4.706;2023-04-24T08:45:31;14.07;;;2.85;;
25213;SDS011;13160;51.834;4.706;2023-04-24T08:48:00;10.90;;;2.88;;
25213;SDS011;13160;51.834;4.706;2023-04-24T08:50:41;18.35;;;2.75;;
25213;SDS011;13160;51.834;4.706;2023-04-24T08:53:11;12.48;;;3.40;;
25213;SDS011;13160;51.834;4.706;2023-04-24T08:55:39;12.85;;;2.30;;
25213;SDS011;13160;51.834;4.706;2023-04-24T08:58:12;12.82;;;3.13;;
25213;SDS011;13160;51.834;4.706;2023-04-24T09:00:41;11.77;;;2.83;;
25213;SDS011;13160;51.834;4.706;2023-04-24T09:03:13;15.35;;;2.78;;
25213;SDS011;13160;51.834;4.706;2023-04-24T09:05:44;9.50;;;2.53;;
25213;SDS011;13160;51.834;4.706;2023-04-24T09:08:18;9.43;;;2.40;;
25213;SDS011;13160;51.834;4.706;2023-04-24T09:10:47;12.75;;;2.25;;
25213;SDS011;13160;51.834;4.706;2023-04-24T09:13:18;11.25;;;3.85;;
25213;SDS011;13160;51.834;4.706;2023-04-24T09:15:47;8.23;;;1.98;;
25213;SDS011;13160;51.834;4.706;2023-04-24T09:18:15;10.23;;;2.17;;
25213;SDS011;13160;51.834;4.706;2023-04-24T09:20:56;8.25;;;1.83;;
25213;SDS011;13160;51.834;4.706;2023-04-24T09:23:27;10.02;;;1.80;;
25213;SDS011;13160;51.834;4.706;2023-04-24T09:25:56;9.25;;;1.65;;
25213;SDS011;13160;51.834;4.706;2023-04-24T09:28:30;9.10;;;1.60;;
25213;SDS011;13160;51.834;4.706;2023-04-24T09:31:07;12.35;;;2.00;;
25213;SDS011;13160;51.834;4.706;2023-04-24T09:33:37;16.00;;;1.75;;
25213;SDS011;13160;51.834;4.706;2023-04-24T09:36:05;10.85;;;1.70;;
25213;SDS011;13160;51.834;4.706;2023-04-24T09:38:34;6.55;;;1.10;;
25213;SDS011;13160;51.834;4.706;2023-04-24T09:41:05;7.43;;;1.27;;
25213;SDS011;13160;51.834;4.706;2023-04-24T09:43:36;6.88;;;1.35;;
25213;SDS011;13160;51.834;4.706;2023-04-24T09:46:06;5.32;;;1.40;;
25213;SDS011;13160;51.834;4.706;2023-04-24T09:48:38;6.30;;;1.40;;
25213;SDS011;13160;51.834;4.706;2023-04-24T09:51:06;5.72;;;1.20;;
25213;SDS011;13160;51.834;4.706;2023-04-24T09:53:37;7.28;;;1.40;;
25213;SDS011;13160;51.834;4.706;2023-04-24T09:56:06;11.68;;;1.48;;
25213;SDS011;13160;51.834;4.706;2023-04-24T09:58:37;5.32;;;1.35;;
25213;SDS011;13160;51.834;4.706;2023-04-24T10:01:06;4.30;;;1.25;;
25213;SDS011;13160;51.834;4.706;2023-04-24T10:03:34;5.05;;;1.20;;
25213;SDS011;13160;51.834;4.706;2023-04-24T10:06:03;4.95;;;0.90;;
25213;SDS011;13160;51.834;4.706;2023-04-24T10:08:36;3.67;;;0.93;;
25213;SDS011;13160;51.834;4.706;2023-04-24T10:11:04;7.55;;;0.98;;
25213;SDS011;13160;51.834;4.706;2023-04-24T10:13:34;4.60;;;0.82;;
25213;SDS011;13160;51.834;4.706;2023-04-24T10:16:05;4.13;;;0.95;;
25213;SDS011;13160;51.834;4.706;2023-04-24T10:18:33;7.80;;;1.27;;
25213;SDS011;13160;51.834;4.706;2023-04-24T10:21:02;4.75;;;1.23;;
25213;SDS011;13160;51.834;4.706;2023-04-24T10:23:31;5.68;;;1.10;;
25213;SDS011;13160;51.834;4.706;2023-04-24T10:26:00;5.30;;;1.10;;
25213;SDS011;13160;51.834;4.706;2023-04-24T10:28:29;4.32;;;1.08;;
25213;SDS011;13160;51.834;4.706;2023-04-24T10:31:00;5.97;;;1.40;;
25213;SDS011;13160;51.834;4.706;2023-04-24T10:33:29;6.25;;;1.52;;
25213;SDS011;13160;51.834;4.706;2023-04-24T10:35:58;8.02;;;1.15;;
25213;SDS011;13160;51.834;4.706;2023-04-24T10:38:28;6.80;;;1.45;;
25213;SDS011;13160;51.834;4.706;2023-04-24T10:41:06;8.57;;;1.35;;
25213;SDS011;13160;51.834;4.706;2023-04-24T10:43:40;7.15;;;1.30;;
25213;SDS011;13160;51.834;4.706;2023-04-24T10:46:10;6.68;;;1.52;;
25213;SDS011;13160;51.834;4.706;2023-04-24T10:48:44;8.07;;;1.45;;
25213;SDS011;13160;51.834;4.706;2023-04-24T10:51:22;8.98;;;1.42;;
25213;SDS011;13160;51.834;4.706;2023-04-24T10:53:52;6.85;;;1.30;;
25213;SDS011;13160;51.834;4.706;2023-04-24T10:56:21;6.63;;;1.30;;
25213;SDS011;13160;51.834;4.706;2023-04-24T10:58:50;7.43;;;1.30;;
25213;SDS011;13160;51.834;4.706;2023-04-24T11:01:25;11.07;;;1.92;;
25213;SDS011;13160;51.834;4.706;2023-04-24T11:03:56;11.32;;;1.90;;
25213;SDS011;13160;51.834;4.706;2023-04-24T11:06:29;11.63;;;2.20;;
25213;SDS011;13160;51.834;4.706;2023-04-24T11:09:01;10.25;;;1.70;;
25213;SDS011;13160;51.834;4.706;2023-04-24T11:11:33;12.95;;;1.67;;
25213;SDS011;13160;51.834;4.706;2023-04-24T11:14:04;9.75;;;2.13;;
25213;SDS011;13160;51.834;4.706;2023-04-24T11:16:37;8.60;;;2.40;;
25213;SDS011;13160;51.834;4.706;2023-04-24T11:19:20;12.90;;;2.60;;
25213;SDS011;13160;51.834;4.706;2023-04-24T11:21:55;9.07;;;1.27;;
25213;SDS011;13160;51.834;4.706;2023-04-24T11:24:27;9.10;;;1.52;;
25213;SDS011;13160;51.834;4.706;2023-04-24T11:27:03;6.70;;;1.30;;
25213;SDS011;13160;51.834;4.706;2023-04-24T11:29:38;10.07;;;1.70;;
25213;SDS011;13160;51.834;4.706;2023-04-24T11:32:17;4.40;;;1.50;;
25213;SDS011;13160;51.834;4.706;2023-04-24T11:34:54;5.75;;;1.50;;
25213;SDS011;13160;51.834;4.706;2023-04-24T11:37:25;10.52;;;1.67;;
25213;SDS011;13160;51.834;4.706;2023-04-24T11:39:56;7.90;;;1.67;;
25213;SDS011;13160;51.834;4.706;2023-04-24T11:42:27;8.30;;;1.50;;
25213;SDS011;13160;51.834;4.706;2023-04-24T11:44:57;10.18;;;1.67;;
25213;SDS011;13160;51.834;4.706;2023-04-24T11:47:31;8.40;;;1.52;;
25213;SDS011;13160;51.834;4.706;2023-04-24T11:50:00;7.07;;;1.80;;
25213;SDS011;13160;51.834;4.706;2023-04-24T11:52:30;16.13;;;1.80;;
25213;SDS011;13160;51.834;4.706;2023-04-24T11:54:59;8.35;;;1.77;;
25213;SDS011;13160;51.834;4.706;2023-04-24T11:57:28;8.35;;;1.90;;
25213;SDS011;13160;51.834;4.706;2023-04-24T12:00:00;8.63;;;1.50;;
25213;SDS011;13160;51.834;4.706;2023-04-24T12:02:32;5.35;;;1.30;;
25213;SDS011;13160;51.834;4.706;2023-04-24T12:05:05;7.65;;;1.73;;
25213;SDS011;13160;51.834;4.706;2023-04-24T12:07:40;8.63;;;1.73;;
25213;SDS011;13160;51.834;4.706;2023-04-24T12:10:10;5.95;;;1.70;;
25213;SDS011;13160;51.834;4.706;2023-04-24T12:12:38;6.35;;;1.45;;
25213;SDS011;13160;51.834;4.706;2023-04-24T12:15:08;7.25;;;1.90;;
25213;SDS011;13160;51.834;4.706;2023-04-24T12:17:41;13.93;;;2.10;;
25213;SDS011;13160;51.834;4.706;2023-04-24T12:20:10;11.20;;;2.05;;
25213;SDS011;13160;51.834;4.706;2023-04-24T12:22:43;9.95;;;1.90;;
25213;SDS011;13160;51.834;4.706;2023-04-24T12:25:14;10.18;;;2.30;;
25213;SDS011;13160;51.834;4.706;2023-04-24T12:27:44;8.93;;;1.92;;
25213;SDS011;13160;51.834;4.706;2023-04-24T12:30:19;9.13;;;2.10;;
25213;SDS011;13160;51.834;4.706;2023-04-24T12:32:50;9.60;;;1.88;;
25213;SDS011;13160;51.834;4.706;2023-04-24T12:35:21;7.10;;;1.77;;
25213;SDS011;13160;51.834;4.706;2023-04-24T12:37:52;9.70;;;2.10;;
25213;SDS011;13160;51.834;4.706;2023-04-24T12:40:20;9.38;;;2.08;;
25213;SDS011;13160;51.834;4.706;2023-04-24T12:42:49;9.27;;;2.38;;
25213;SDS011;13160;51.834;4.706;2023-04-24T12:45:20;8.38;;;2.08;;
25213;SDS011;13160;51.834;4.706;2023-04-24T12:47:51;12.57;;;3.03;;
25213;SDS011;13160;51.834;4.706;2023-04-24T12:50:20;9.52;;;2.08;;
25213;SDS011;13160;51.834;4.706;2023-04-24T12:52:48;9.75;;;2.15;;
25213;SDS011;13160;51.834;4.706;2023-04-24T12:55:18;8.52;;;2.40;;
25213;SDS011;13160;51.834;4.706;2023-04-24T12:57:46;9.68;;;2.20;;
25213;SDS011;13160;51.834;4.706;2023-04-24T13:00:15;7.85;;;2.00;;
25213;SDS011;13160;51.834;4.706;2023-04-24T13:02:45;17.23;;;2.60;;
25213;SDS011;13160;51.834;4.706;2023-04-24T13:05:18;6.93;;;2.20;;
25213;SDS011;13160;51.834;4.706;2023-04-24T13:07:50;7.40;;;1.80;;
25213;SDS011;13160;51.834;4.706;2023-04-24T13:10:19;5.13;;;1.95;;
25213;SDS011;13160;51.834;4.706;2023-04-24T13:12:47;10.55;;;2.25;;
25213;SDS011;13160;51.834;4.706;2023-04-24T13:15:16;10.93;;;2.80;;
25213;SDS011;13160;51.834;4.706;2023-04-24T13:17:44;16.42;;;3.03;;
25213;SDS011;13160;51.834;4.706;2023-04-24T13:20:16;9.93;;;2.60;;
25213;SDS011;13160;51.834;4.706;2023-04-24T13:22:46;9.68;;;2.80;;
25213;SDS011;13160;51.834;4.706;2023-04-24T13:25:15;12.15;;;2.70;;
25213;SDS011;13160;51.834;4.706;2023-04-24T13:27:44;9.80;;;2.67;;
25213;SDS011;13160;51.834;4.706;2023-04-24T13:30:15;11.40;;;2.95;;
25213;SDS011;13160;51.834;4.706;2023-04-24T13:32:44;14.57;;;3.17;;
25213;SDS011;13160;51.834;4.706;2023-04-24T13:35:15;11.77;;;2.90;;
25213;SDS011;13160;51.834;4.706;2023-04-24T13:37:48;12.88;;;3.75;;
25213;SDS011;13160;51.834;4.706;2023-04-24T13:40:17;12.50;;;3.13;;
25213;SDS011;13160;51.834;4.706;2023-04-24T13:42:46;18.55;;;3.50;;
25213;SDS011;13160;51.834;4.706;2023-04-24T13:45:14;12.63;;;3.17;;
25213;SDS011;13160;51.834;4.706;2023-04-24T13:47:50;12.40;;;2.97;;
25213;SDS011;13160;51.834;4.706;2023-04-24T13:50:20;11.32;;;3.20;;
25213;SDS011;13160;51.834;4.706;2023-04-24T13:52:50;8.95;;;2.63;;
25213;SDS011;13160;51.834;4.706;2023-04-24T13:55:18;11.60;;;3.40;;
25213;SDS011;13160;51.834;4.706;2023-04-24T13:57:47;15.50;;;3.92;;
25213;SDS011;13160;51.834;4.706;2023-04-24T14:00:15;14.25;;;4.40;;
25213;SDS011;13160;51.834;4.706;2023-04-24T14:02:45;14.60;;;4.22;;
25213;SDS011;13160;51.834;4.706;2023-04-24T14:05:14;18.90;;;4.95;;
25213;SDS011;13160;51.834;4.706;2023-04-24T14:07:43;15.98;;;4.55;;
25213;SDS011;13160;51.834;4.706;2023-04-24T14:10:15;20.85;;;4.68;;
25213;SDS011;13160;51.834;4.706;2023-04-24T14:12:44;17.42;;;4.70;;
25213;SDS011;13160;51.834;4.706;2023-04-24T14:15:15;18.88;;;4.43;;
25213;SDS011;13160;51.834;4.706;2023-04-24T14:17:44;13.43;;;4.15;;
25213;SDS011;13160;51.834;4.706;2023-04-24T14:20:16;13.77;;;3.88;;
25213;SDS011;13160;51.834;4.706;2023-04-24T14:22:44;18.38;;;4.50;;
25213;SDS011;13160;51.834;4.706;2023-04-24T14:25:15;14.68;;;5.03;;
25213;SDS011;13160;51.834;4.706;2023-04-24T14:27:44;10.30;;;3.88;;
25213;SDS011;13160;51.834;4.706;2023-04-24T14:30:15;10.50;;;3.30;;
25213;SDS011;13160;51.834;4.706;2023-04-24T14:32:43;10.82;;;3.30;;
25213;SDS011;13160;51.834;4.706;2023-04-24T14:35:13;11.07;;;3.25;;
25213;SDS011;13160;51.834;4.706;2023-04-24T14:37:42;12.52;;;3.65;;
25213;SDS011;13160;51.834;4.706;2023-04-24T14:40:10;18.08;;;3.78;;
25213;SDS011;13160;51.834;4.706;2023-04-24T14:43:00;14.48;;;4.63;;
25213;SDS011;13160;51.834;4.706;2023-04-24T14:45:29;13.88;;;4.28;;
25213;SDS011;13160;51.834;4.706;2023-04-24T14:47:57;16.20;;;4.53;;
25213;SDS011;13160;51.834;4.706;2023-04-24T14:50:26;18.10;;;5.15;;
25213;SDS011;13160;51.834;4.706;2023-04-24T14:52:55;14.52;;;5.35;;